createdAt,value
2019-03-16T00:00:01.707Z,96.46
2019-03-16T00:01:01.802Z,96.73
2019-03-16T00:02:02.727Z,97.21
2019-03-16T00:03:03.628Z,97.51
2019-03-16T00:04:04.497Z,97.75
2019-03-16T00:05:05.352Z,98.18
2019-03-16T00:06:06.205Z,98.39
2019-03-16T00:07:06.446Z,98.01
2019-03-16T00:08:06.517Z,98.17
2019-03-16T00:09:06.533Z,98.05
2019-03-16T00:10:07.387Z,98.18
2019-03-16T00:11:08.325Z,98.07
2019-03-16T00:12:09.005Z,98.62
2019-03-16T00:13:09.743Z,98.47
2019-03-16T00:14:09.727Z,98.44
2019-03-16T00:15:10.562Z,98.44
2019-03-16T00:16:11.613Z,97.89
2019-03-16T00:17:22.889Z,98.52
2019-03-16T00:18:12.259Z,98.60
2019-03-16T00:19:14.029Z,98.94
2019-03-16T00:20:14.813Z,99.12
2019-03-16T00:21:15.565Z,98.69
2019-03-16T00:22:16.485Z,99.31
2019-03-16T00:23:17.110Z,100.09
2019-03-16T00:23:26.145Z,99.96
2019-03-16T00:24:27.874Z,99.94
2019-03-16T00:25:28.491Z,99.48
2019-03-16T00:26:29.463Z,99.67
2019-03-16T00:27:30.367Z,97.97
2019-03-16T00:28:30.507Z,98.61
2019-03-16T00:29:31.341Z,98.84
2019-03-16T00:30:32.252Z,98.93
2019-03-16T00:31:32.941Z,99.30
2019-03-16T00:32:33.020Z,98.16
2019-03-16T00:33:33.814Z,98.33
2019-03-16T00:34:34.735Z,98.07
2019-03-16T00:35:35.590Z,97.57
2019-03-16T00:36:36.374Z,97.02
2019-03-16T00:37:37.269Z,96.74
2019-03-16T00:38:38.083Z,97.34
2019-03-16T00:39:38.912Z,96.39
2019-03-16T00:40:38.945Z,94.88
2019-03-16T00:41:39.128Z,95.97
2019-03-16T00:42:39.825Z,96.64
2019-03-16T00:43:40.534Z,97.17
2019-03-16T00:44:41.200Z,96.60
2019-03-16T00:45:41.437Z,96.30
2019-03-16T00:46:42.099Z,96.97
2019-03-16T00:47:42.863Z,97.07
2019-03-16T00:48:43.531Z,97.05
2019-03-16T00:49:44.284Z,97.92
2019-03-16T00:50:44.335Z,98.43
2019-03-16T00:51:45.197Z,97.83
2019-03-16T00:52:46.127Z,98.42
2019-03-16T00:53:46.932Z,98.23
2019-03-16T00:54:47.043Z,98.79
2019-03-16T00:55:47.071Z,98.88
2019-03-16T00:56:47.217Z,100.04
2019-03-16T00:57:47.285Z,99.08
2019-03-16T00:58:48.225Z,99.48
2019-03-16T00:59:49.173Z,99.15
2019-03-16T01:00:49.960Z,99.18
2019-03-16T01:01:50.696Z,99.26
2019-03-16T01:02:51.417Z,99.01
2019-03-16T01:03:52.128Z,99.14
2019-03-16T01:04:52.938Z,99.60
2019-03-16T01:05:53.710Z,100.04
2019-03-16T01:06:54.516Z,98.90
2019-03-16T01:07:55.410Z,97.75
2019-03-16T01:08:03.967Z,96.39
2019-03-16T01:09:05.742Z,96.36
2019-03-16T01:10:06.544Z,96.30
2019-03-16T01:11:07.345Z,96.55
2019-03-16T01:12:08.275Z,96.58
2019-03-16T01:13:09.046Z,95.81
2019-03-16T01:14:09.775Z,96.88
2019-03-16T01:15:10.573Z,97.63
2019-03-16T01:16:11.317Z,97.42
2019-03-16T01:17:12.134Z,97.73
2019-03-16T01:18:12.618Z,97.31
2019-03-16T01:19:13.291Z,97.07
2019-03-16T01:20:13.943Z,96.48
2019-03-16T01:21:14.799Z,96.87
2019-03-16T01:22:15.568Z,96.86
2019-03-16T01:23:17.767Z,97.06
2019-03-16T01:24:15.539Z,96.82
2019-03-16T01:25:17.372Z,97.29
2019-03-16T01:26:18.207Z,97.94
2019-03-16T01:27:19.106Z,98.64
2019-03-16T01:28:19.179Z,99.10
2019-03-16T01:29:20.011Z,99.17
2019-03-16T01:30:20.891Z,97.90
2019-03-16T01:31:21.696Z,98.00
2019-03-16T01:32:22.563Z,98.01
2019-03-16T01:33:22.707Z,98.24
2019-03-16T01:34:22.738Z,97.51
2019-03-16T01:35:23.713Z,97.40
2019-03-16T01:36:24.681Z,97.12
2019-03-16T01:37:25.058Z,97.78
2019-03-16T01:38:25.741Z,98.37
2019-03-16T01:39:26.428Z,97.05
2019-03-16T01:40:27.364Z,97.11
2019-03-16T01:41:28.138Z,97.61
2019-03-16T01:42:28.889Z,99.04
2019-03-16T01:43:29.714Z,98.00
2019-03-16T01:44:30.451Z,97.52
2019-03-16T01:45:31.263Z,97.53
2019-03-16T01:46:32.012Z,97.31
2019-03-16T01:47:32.700Z,97.42
2019-03-16T01:48:33.666Z,97.31
2019-03-16T01:49:34.591Z,97.79
2019-03-16T01:50:35.379Z,98.39
2019-03-16T01:51:35.481Z,98.86
2019-03-16T01:51:44.055Z,98.95
2019-03-16T01:52:45.891Z,98.98
2019-03-16T01:53:46.806Z,98.41
2019-03-16T01:54:46.854Z,98.84
2019-03-16T01:55:46.954Z,99.69
2019-03-16T01:56:47.032Z,99.72
2019-03-16T01:57:47.949Z,100.21
2019-03-16T01:58:48.918Z,100.36
2019-03-16T01:59:49.801Z,99.97
2019-03-16T02:00:50.680Z,100.82
2019-03-16T02:01:50.754Z,99.75
2019-03-16T02:02:55.692Z,99.45
2019-03-16T02:03:49.880Z,99.29
2019-03-16T02:04:51.885Z,100.47
2019-03-16T02:05:51.951Z,100.82
2019-03-16T02:06:52.833Z,101.47
2019-03-16T02:07:53.546Z,101.83
2019-03-16T02:08:54.469Z,101.72
2019-03-16T02:09:55.395Z,102.11
2019-03-16T02:10:56.126Z,101.71
2019-03-16T02:11:56.831Z,101.87
2019-03-16T02:12:57.534Z,101.69
2019-03-16T02:13:58.495Z,101.87
2019-03-16T02:14:59.282Z,102.21
2019-03-16T02:16:10.481Z,102.17
2019-03-16T02:16:59.835Z,102.58
2019-03-16T02:18:01.697Z,102.75
2019-03-16T02:19:01.726Z,102.56
2019-03-16T02:20:02.689Z,102.59
2019-03-16T02:21:03.563Z,103.01
2019-03-16T02:22:04.303Z,103.17
2019-03-16T02:23:05.136Z,103.77
2019-03-16T02:24:06.059Z,104.09
2019-03-16T02:25:06.916Z,104.23
2019-03-16T02:26:07.693Z,103.85
2019-03-16T02:27:08.681Z,102.97
2019-03-16T02:28:09.086Z,102.73
2019-03-16T02:29:09.698Z,102.28
2019-03-16T02:30:10.656Z,101.80
2019-03-16T02:31:11.369Z,101.99
2019-03-16T02:32:12.170Z,102.58
2019-03-16T02:33:13.906Z,103.50
2019-03-16T02:34:12.817Z,103.91
2019-03-16T02:35:14.694Z,104.35
2019-03-16T02:36:15.599Z,103.67
2019-03-16T02:37:16.459Z,103.35
2019-03-16T02:38:17.081Z,103.56
2019-03-16T02:38:25.656Z,103.02
2019-03-16T02:39:27.615Z,102.97
2019-03-16T02:40:28.352Z,102.47
2019-03-16T02:41:29.136Z,103.53
2019-03-16T02:42:29.940Z,103.65
2019-03-16T02:43:30.727Z,103.73
2019-03-16T02:44:30.755Z,104.16
2019-03-16T02:45:31.594Z,104.28
2019-03-16T02:46:31.659Z,104.28
2019-03-16T02:47:32.519Z,104.43
2019-03-16T02:48:33.317Z,104.49
2019-03-16T02:49:34.221Z,105.18
2019-03-16T02:50:35.182Z,105.41
2019-03-16T02:51:35.204Z,105.37
2019-03-16T02:52:36.151Z,105.17
2019-03-16T02:53:37.004Z,105.05
2019-03-16T02:54:37.850Z,105.06
2019-03-16T02:55:38.754Z,105.07
2019-03-16T02:56:38.765Z,105.06
2019-03-16T02:57:39.687Z,105.13
2019-03-16T02:58:40.512Z,105.45
2019-03-16T02:59:41.455Z,105.58
2019-03-16T03:00:42.375Z,105.37
2019-03-16T03:01:43.280Z,105.22
2019-03-16T03:02:44.096Z,105.12
2019-03-16T03:03:45.015Z,104.93
2019-03-16T03:04:46.695Z,105.34
2019-03-16T03:05:44.865Z,105.45
2019-03-16T03:06:46.029Z,105.38
2019-03-16T03:07:46.072Z,105.05
2019-03-16T03:08:47.058Z,104.96
2019-03-16T03:09:47.844Z,105.06
2019-03-16T03:10:47.714Z,105.26
2019-03-16T03:11:49.468Z,104.87
2019-03-16T03:12:50.252Z,104.60
2019-03-16T03:13:51.128Z,104.39
2019-03-16T03:14:51.777Z,104.36
2019-03-16T03:15:52.493Z,104.46
2019-03-16T03:16:52.524Z,104.48
2019-03-16T03:17:52.606Z,104.62
2019-03-16T03:18:52.689Z,105.12
2019-03-16T03:19:53.339Z,105.54
2019-03-16T03:20:54.270Z,105.77
2019-03-16T03:21:55.073Z,106.01
2019-03-16T03:22:55.866Z,106.21
2019-03-16T03:23:04.402Z,106.15
2019-03-16T03:24:06.167Z,106.15
2019-03-16T03:25:06.962Z,106.20
2019-03-16T03:26:07.729Z,106.20
2019-03-16T03:27:08.652Z,106.37
2019-03-16T03:28:09.570Z,106.35
2019-03-16T03:29:10.535Z,105.91
2019-03-16T03:30:10.595Z,105.82
2019-03-16T03:31:10.415Z,105.96
2019-03-16T03:32:12.366Z,105.95
2019-03-16T03:33:13.351Z,106.05
2019-03-16T03:34:13.092Z,106.16
2019-03-16T03:35:15.012Z,106.00
2019-03-16T03:36:15.725Z,105.77
2019-03-16T03:37:16.396Z,105.78
2019-03-16T03:38:17.084Z,105.92
2019-03-16T03:39:17.222Z,106.18
2019-03-16T03:40:17.868Z,106.30
2019-03-16T03:41:18.773Z,106.32
2019-03-16T03:42:19.781Z,106.18
2019-03-16T03:43:19.476Z,106.02
2019-03-16T03:44:21.458Z,105.94
2019-03-16T03:45:22.147Z,105.99
2019-03-16T03:46:23.089Z,106.35
2019-03-16T03:47:23.836Z,106.57
2019-03-16T03:48:24.733Z,107.01
2019-03-16T03:49:25.548Z,107.12
2019-03-16T03:50:26.496Z,106.98
2019-03-16T03:51:27.273Z,106.87
2019-03-16T03:52:28.121Z,106.83
2019-03-16T03:53:28.876Z,106.58
2019-03-16T03:54:28.935Z,106.38
2019-03-16T03:55:29.835Z,106.44
2019-03-16T03:56:30.699Z,106.25
2019-03-16T03:57:31.592Z,106.21
2019-03-16T03:58:32.473Z,106.14
2019-03-16T03:59:33.296Z,106.08
2019-03-16T04:00:34.231Z,106.44
2019-03-16T04:01:34.232Z,106.68
2019-03-16T04:02:35.125Z,106.90
2019-03-16T04:03:35.929Z,106.89
2019-03-16T04:04:36.207Z,106.78
2019-03-16T04:05:37.001Z,106.82
2019-03-16T04:06:37.104Z,106.71
2019-03-16T04:07:37.922Z,106.83
2019-03-16T04:08:38.135Z,107.13
2019-03-16T04:09:39.039Z,107.19
2019-03-16T04:09:47.579Z,107.20
2019-03-16T04:10:48.976Z,107.19
2019-03-16T04:11:49.116Z,107.06
2019-03-16T04:12:49.349Z,107.04
2019-03-16T04:13:50.148Z,106.94
2019-03-16T04:14:50.937Z,106.96
2019-03-16T04:15:50.601Z,107.15
2019-03-16T04:16:52.496Z,107.19
2019-03-16T04:17:52.607Z,107.13
2019-03-16T04:18:53.384Z,107.15
2019-03-16T04:19:54.330Z,107.31
2019-03-16T04:20:55.233Z,107.33
2019-03-16T04:21:56.161Z,107.23
2019-03-16T04:22:56.297Z,106.95
2019-03-16T04:23:56.304Z,107.00
2019-03-16T04:24:57.016Z,107.23
2019-03-16T04:25:57.937Z,107.15
2019-03-16T04:27:14.633Z,107.13
2019-03-16T04:27:58.598Z,106.97
2019-03-16T04:29:00.431Z,106.94
2019-03-16T04:30:01.357Z,107.11
2019-03-16T04:31:02.368Z,107.04
2019-03-16T04:32:03.132Z,107.05
2019-03-16T04:33:04.074Z,107.18
2019-03-16T04:34:04.058Z,107.14
2019-03-16T04:35:04.816Z,107.04
2019-03-16T04:36:05.662Z,106.95
2019-03-16T04:37:06.400Z,107.15
2019-03-16T04:38:07.143Z,107.18
2019-03-16T04:39:07.867Z,107.39
2019-03-16T04:40:08.697Z,107.30
2019-03-16T04:41:09.473Z,107.21
2019-03-16T04:42:10.354Z,107.13
2019-03-16T04:43:10.059Z,107.22
2019-03-16T04:44:11.774Z,107.24
2019-03-16T04:45:12.528Z,107.25
2019-03-16T04:46:12.592Z,107.18
2019-03-16T04:47:12.655Z,107.38
2019-03-16T04:48:13.649Z,107.45
2019-03-16T04:49:14.531Z,107.38
2019-03-16T04:50:15.241Z,107.45
2019-03-16T04:51:15.312Z,107.46
2019-03-16T04:52:15.155Z,107.69
2019-03-16T04:53:17.081Z,107.74
2019-03-16T04:54:17.133Z,107.66
2019-03-16T04:55:17.154Z,107.86
2019-03-16T04:56:17.914Z,107.90
2019-03-16T04:57:18.809Z,107.82
2019-03-16T04:58:19.752Z,107.70
2019-03-16T04:58:31.289Z,107.90
2019-03-16T04:59:32.975Z,107.89
2019-03-16T05:00:33.093Z,107.65
2019-03-16T05:01:33.091Z,107.56
2019-03-16T05:02:33.467Z,107.46
2019-03-16T05:03:34.147Z,107.37
2019-03-16T05:04:42.394Z,107.38
2019-03-16T05:05:34.044Z,107.32
2019-03-16T05:06:35.741Z,107.36
2019-03-16T05:07:36.572Z,107.46
2019-03-16T05:08:36.471Z,107.60
2019-03-16T05:09:36.503Z,107.70
2019-03-16T05:10:38.319Z,107.69
2019-03-16T05:11:39.311Z,107.63
2019-03-16T05:12:38.990Z,107.55
2019-03-16T05:13:40.871Z,107.30
2019-03-16T05:14:41.794Z,107.17
2019-03-16T05:15:42.752Z,107.08
2019-03-16T05:16:43.667Z,107.00
2019-03-16T05:17:44.418Z,107.09
2019-03-16T05:18:44.485Z,107.13
2019-03-16T05:19:45.233Z,107.13
2019-03-16T05:20:46.042Z,107.23
2019-03-16T05:21:46.903Z,107.32
2019-03-16T05:22:47.779Z,107.37
2019-03-16T05:23:48.652Z,107.35
2019-03-16T05:24:49.552Z,107.45
2019-03-16T05:25:50.445Z,107.33
2019-03-16T05:26:50.556Z,107.12
2019-03-16T05:27:51.420Z,107.29
2019-03-16T05:28:51.773Z,107.47
2019-03-16T05:29:51.801Z,107.77
2019-03-16T05:30:52.524Z,108.11
2019-03-16T05:31:53.288Z,108.14
2019-03-16T05:32:53.348Z,108.03
2019-03-16T05:33:54.185Z,108.00
2019-03-16T05:34:56.658Z,108.06
2019-03-16T05:35:54.918Z,108.25
2019-03-16T05:36:56.878Z,108.40
2019-03-16T05:37:57.085Z,108.60
2019-03-16T05:38:57.928Z,108.82
2019-03-16T05:39:58.806Z,109.00
2019-03-16T05:40:58.864Z,109.00
2019-03-16T05:41:59.627Z,109.00
2019-03-16T05:43:00.338Z,109.00
2019-03-16T05:44:00.341Z,109.00
2019-03-16T05:45:01.147Z,109.00
2019-03-16T05:46:01.330Z,109.00
2019-03-16T05:47:01.377Z,108.89
2019-03-16T05:48:00.885Z,108.59
2019-03-16T05:48:09.408Z,107.13
2019-03-16T05:49:11.113Z,107.04
2019-03-16T05:50:11.824Z,106.18
2019-03-16T05:51:12.600Z,105.12
2019-03-16T05:52:12.829Z,104.38
2019-03-16T05:53:13.294Z,103.63
2019-03-16T05:54:12.281Z,103.16
2019-03-16T05:55:14.041Z,102.19
2019-03-16T05:56:14.925Z,101.75
2019-03-16T05:57:15.658Z,101.78
2019-03-16T05:58:16.458Z,101.76
2019-03-16T05:59:17.374Z,101.23
2019-03-16T06:00:18.253Z,101.10
2019-03-16T06:01:18.996Z,101.05
2019-03-16T06:02:19.626Z,100.62
2019-03-16T06:03:20.408Z,100.55
2019-03-16T06:04:20.456Z,99.93
2019-03-16T06:05:21.067Z,99.50
2019-03-16T06:06:21.913Z,100.33
2019-03-16T06:07:22.650Z,99.86
2019-03-16T06:08:23.565Z,99.64
2019-03-16T06:09:24.528Z,98.97
2019-03-16T06:10:25.411Z,98.74
2019-03-16T06:11:26.231Z,98.41
2019-03-16T06:12:25.685Z,97.98
2019-03-16T06:13:27.421Z,98.32
2019-03-16T06:14:28.208Z,98.26
2019-03-16T06:15:29.086Z,97.87
2019-03-16T06:16:29.973Z,98.17
2019-03-16T06:17:30.875Z,98.49
2019-03-16T06:18:30.057Z,98.45
2019-03-16T06:19:31.282Z,98.14
2019-03-16T06:20:32.227Z,97.92
2019-03-16T06:21:33.065Z,97.29
2019-03-16T06:22:33.996Z,97.83
2019-03-16T06:23:34.977Z,96.77
2019-03-16T06:24:35.274Z,96.83
2019-03-16T06:25:35.426Z,96.91
2019-03-16T06:26:36.277Z,96.86
2019-03-16T06:27:37.049Z,97.25
2019-03-16T06:28:37.982Z,97.34
2019-03-16T06:29:38.038Z,97.56
2019-03-16T06:30:38.938Z,96.78
2019-03-16T06:31:39.837Z,97.15
2019-03-16T06:32:39.751Z,96.89
2019-03-16T06:33:41.616Z,96.37
2019-03-16T06:34:42.542Z,95.93
2019-03-16T06:35:43.439Z,95.82
2019-03-16T06:35:52.029Z,96.31
2019-03-16T06:36:53.193Z,96.27
2019-03-16T06:37:53.940Z,96.12
2019-03-16T06:38:54.006Z,96.53
2019-03-16T06:39:54.816Z,96.76
2019-03-16T06:40:55.589Z,96.43
2019-03-16T06:41:55.794Z,96.79
2019-03-16T06:42:56.658Z,96.49
2019-03-16T06:43:57.531Z,96.33
2019-03-16T06:44:58.034Z,96.18
2019-03-16T06:45:58.047Z,96.21
2019-03-16T06:46:58.999Z,96.70
2019-03-16T06:47:59.902Z,96.47
2019-03-16T06:49:00.736Z,95.90
2019-03-16T06:50:01.512Z,96.09
2019-03-16T06:51:01.550Z,96.15
2019-03-16T06:52:01.731Z,96.49
2019-03-16T06:53:02.692Z,96.39
2019-03-16T06:54:03.637Z,95.54
2019-03-16T06:55:04.237Z,96.21
2019-03-16T06:56:05.193Z,96.28
2019-03-16T06:57:05.970Z,96.46
2019-03-16T06:58:06.954Z,96.06
2019-03-16T06:59:07.825Z,96.54
2019-03-16T07:00:08.711Z,96.36
2019-03-16T07:01:09.503Z,96.85
2019-03-16T07:02:10.304Z,96.21
2019-03-16T07:03:11.096Z,96.70
2019-03-16T07:04:11.156Z,95.90
2019-03-16T07:05:11.982Z,95.86
2019-03-16T07:06:12.980Z,95.49
2019-03-16T07:07:13.681Z,95.63
2019-03-16T07:08:14.495Z,96.05
2019-03-16T07:09:15.339Z,96.16
2019-03-16T07:10:16.284Z,95.68
2019-03-16T07:11:17.214Z,96.25
2019-03-16T07:12:17.222Z,96.57
2019-03-16T07:13:17.949Z,96.77
2019-03-16T07:14:18.138Z,96.25
2019-03-16T07:15:18.835Z,96.50
2019-03-16T07:16:19.514Z,96.39
2019-03-16T07:17:20.110Z,96.76
2019-03-16T07:18:20.873Z,96.44
2019-03-16T07:19:21.481Z,96.55
2019-03-16T07:19:33.766Z,96.91
2019-03-16T07:20:31.988Z,96.88
2019-03-16T07:21:32.839Z,97.32
2019-03-16T07:22:34.538Z,97.47
2019-03-16T07:23:34.833Z,97.75
2019-03-16T07:24:34.296Z,97.12
2019-03-16T07:25:36.064Z,96.94
2019-03-16T07:26:36.190Z,97.18
2019-03-16T07:27:37.003Z,97.48
2019-03-16T07:28:37.685Z,97.02
2019-03-16T07:29:38.343Z,97.36
2019-03-16T07:30:38.966Z,97.28
2019-03-16T07:31:39.750Z,97.15
2019-03-16T07:32:40.543Z,96.13
2019-03-16T07:33:41.293Z,96.51
2019-03-16T07:34:42.083Z,96.42
2019-03-16T07:35:42.265Z,96.35
2019-03-16T07:36:43.075Z,96.47
2019-03-16T07:37:44.040Z,95.89
2019-03-16T07:38:44.949Z,95.60
2019-03-16T07:39:45.049Z,96.09
2019-03-16T07:40:45.875Z,95.78
2019-03-16T07:41:46.123Z,95.85
2019-03-16T07:42:46.889Z,95.89
2019-03-16T07:43:47.767Z,95.55
2019-03-16T07:44:48.472Z,96.06
2019-03-16T07:45:48.161Z,95.14
2019-03-16T07:46:49.932Z,95.42
2019-03-16T07:47:50.833Z,95.47
2019-03-16T07:48:51.686Z,95.73
2019-03-16T07:49:52.467Z,95.89
2019-03-16T07:50:53.249Z,95.82
2019-03-16T07:51:53.968Z,95.52
2019-03-16T07:52:53.967Z,95.52
2019-03-16T07:53:55.853Z,95.12
2019-03-16T07:54:55.873Z,95.23
2019-03-16T07:55:56.652Z,95.83
2019-03-16T07:56:57.597Z,95.61
2019-03-16T07:57:58.406Z,95.55
2019-03-16T07:58:59.234Z,95.60
2019-03-16T08:00:00.044Z,95.74
2019-03-16T08:01:03.283Z,96.19
2019-03-16T08:02:00.514Z,95.96
2019-03-16T08:03:02.368Z,96.12
2019-03-16T08:04:03.157Z,96.40
2019-03-16T08:05:16.928Z,96.36
2019-03-16T08:06:03.956Z,96.12
2019-03-16T08:07:05.779Z,96.34
2019-03-16T08:08:06.588Z,96.51
2019-03-16T08:09:07.579Z,95.94
2019-03-16T08:09:16.152Z,95.61
2019-03-16T08:10:16.950Z,95.59
2019-03-16T08:11:18.036Z,96.02
2019-03-16T08:12:18.061Z,96.13
2019-03-16T08:13:18.914Z,96.27
2019-03-16T08:14:19.639Z,96.67
2019-03-16T08:15:20.353Z,96.58
2019-03-16T08:16:21.144Z,96.62
2019-03-16T08:17:21.900Z,96.75
2019-03-16T08:18:22.812Z,97.15
2019-03-16T08:19:23.639Z,97.14
2019-03-16T08:20:24.413Z,96.86
2019-03-16T08:21:25.088Z,95.89
2019-03-16T08:22:25.790Z,96.78
2019-03-16T08:23:26.615Z,96.81
2019-03-16T08:24:26.619Z,97.35
2019-03-16T08:25:27.469Z,97.44
2019-03-16T08:26:27.633Z,97.33
2019-03-16T08:27:27.815Z,97.04
2019-03-16T08:28:28.524Z,97.27
2019-03-16T08:29:29.218Z,96.67
2019-03-16T08:30:29.872Z,96.79
2019-03-16T08:31:30.577Z,96.46
2019-03-16T08:32:31.159Z,96.24
2019-03-16T08:33:31.878Z,95.68
2019-03-16T08:34:32.683Z,94.87
2019-03-16T08:35:33.330Z,94.83
2019-03-16T08:36:34.094Z,94.59
2019-03-16T08:37:34.837Z,94.98
2019-03-16T08:38:35.667Z,94.85
2019-03-16T08:39:36.582Z,94.79
2019-03-16T08:40:37.342Z,94.44
2019-03-16T08:41:38.290Z,93.85
2019-03-16T08:42:39.059Z,94.79
2019-03-16T08:43:39.783Z,94.66
2019-03-16T08:44:40.553Z,94.63
2019-03-16T08:45:40.581Z,94.73
2019-03-16T08:46:41.320Z,93.66
2019-03-16T08:47:42.318Z,93.05
2019-03-16T08:48:43.127Z,92.96
2019-03-16T08:49:44.118Z,93.42
2019-03-16T08:50:44.883Z,92.66
2019-03-16T08:51:45.592Z,92.62
2019-03-16T08:52:45.867Z,91.80
2019-03-16T08:53:46.574Z,91.79
2019-03-16T08:54:47.398Z,92.02
2019-03-16T08:54:55.960Z,92.61
2019-03-16T08:55:57.540Z,92.51
2019-03-16T08:56:58.393Z,92.38
2019-03-16T08:58:06.002Z,92.40
2019-03-16T08:58:58.493Z,91.94
2019-03-16T09:00:00.442Z,92.30
2019-03-16T09:01:00.118Z,91.90
2019-03-16T09:02:01.191Z,92.52
2019-03-16T09:03:01.366Z,92.91
2019-03-16T09:04:01.568Z,91.88
2019-03-16T09:05:01.569Z,92.82
2019-03-16T09:06:02.555Z,92.18
2019-03-16T09:07:03.511Z,92.50
2019-03-16T09:08:04.387Z,92.51
2019-03-16T09:09:05.229Z,92.84
2019-03-16T09:10:06.085Z,93.18
2019-03-16T09:11:07.295Z,92.97
2019-03-16T09:12:08.020Z,92.95
2019-03-16T09:13:07.717Z,93.24
2019-03-16T09:14:09.953Z,93.06
2019-03-16T09:15:09.741Z,93.29
2019-03-16T09:16:10.300Z,93.55
2019-03-16T09:17:11.654Z,92.99
2019-03-16T09:18:10.706Z,93.46
2019-03-16T09:19:11.999Z,93.08
2019-03-16T09:20:11.876Z,93.53
2019-03-16T09:21:13.778Z,93.50
2019-03-16T09:22:14.480Z,93.14
2019-03-16T09:23:15.262Z,92.58
2019-03-16T09:24:15.854Z,92.35
2019-03-16T09:25:16.702Z,93.07
2019-03-16T09:26:15.726Z,92.37
2019-03-16T09:27:30.324Z,92.40
2019-03-16T09:28:18.963Z,92.72
2019-03-16T09:29:17.701Z,92.84
2019-03-16T09:30:19.482Z,92.40
2019-03-16T09:31:19.526Z,92.30
2019-03-16T09:32:20.516Z,92.12
2019-03-16T09:33:21.540Z,92.64
2019-03-16T09:34:21.117Z,92.71
2019-03-16T09:35:22.139Z,92.81
2019-03-16T09:36:22.157Z,92.74
2019-03-16T09:37:23.065Z,92.60
2019-03-16T09:38:23.947Z,93.05
2019-03-16T09:39:24.900Z,92.14
2019-03-16T09:40:25.788Z,93.34
2019-03-16T09:41:25.845Z,93.61
2019-03-16T09:42:26.604Z,93.84
2019-03-16T09:43:27.539Z,94.66
2019-03-16T09:44:28.273Z,95.06
2019-03-16T09:45:28.983Z,94.91
2019-03-16T09:46:29.710Z,95.20
2019-03-16T09:47:30.411Z,95.89
2019-03-16T09:47:39.525Z,95.39
2019-03-16T09:48:40.636Z,95.36
2019-03-16T09:49:41.342Z,95.21
2019-03-16T09:50:41.327Z,95.78
2019-03-16T09:51:42.192Z,95.72
2019-03-16T09:52:42.819Z,96.04
2019-03-16T09:53:43.688Z,96.09
2019-03-16T09:54:44.409Z,96.32
2019-03-16T09:55:45.281Z,95.64
2019-03-16T09:56:46.112Z,95.45
2019-03-16T09:57:45.993Z,95.66
2019-03-16T09:58:47.857Z,95.98
2019-03-16T09:59:48.637Z,95.27
2019-03-16T10:00:49.429Z,95.36
2019-03-16T10:01:50.219Z,95.02
2019-03-16T10:02:50.332Z,94.43
2019-03-16T10:03:51.277Z,94.18
2019-03-16T10:04:52.166Z,94.67
2019-03-16T10:05:53.112Z,94.14
2019-03-16T10:06:54.012Z,94.55
2019-03-16T10:07:55.037Z,94.23
2019-03-16T10:08:54.904Z,94.17
2019-03-16T10:09:56.571Z,94.65
2019-03-16T10:10:57.455Z,94.34
2019-03-16T10:11:58.285Z,93.96
2019-03-16T10:12:59.228Z,94.17
2019-03-16T10:14:00.148Z,93.52
2019-03-16T10:15:01.006Z,92.88
2019-03-16T10:16:01.901Z,93.73
2019-03-16T10:17:02.785Z,93.58
2019-03-16T10:18:03.655Z,93.05
2019-03-16T10:19:04.603Z,92.82
2019-03-16T10:20:05.299Z,92.17
2019-03-16T10:21:06.042Z,92.61
2019-03-16T10:22:06.773Z,93.02
2019-03-16T10:23:07.553Z,92.34
2019-03-16T10:24:08.483Z,91.47
2019-03-16T10:25:09.090Z,91.22
2019-03-16T10:26:09.814Z,91.21
2019-03-16T10:27:10.659Z,91.07
2019-03-16T10:28:10.458Z,90.72
2019-03-16T10:29:11.448Z,90.81
2019-03-16T10:30:12.164Z,91.11
2019-03-16T10:31:11.417Z,91.71
2019-03-16T10:32:13.213Z,91.72
2019-03-16T10:33:14.080Z,90.25
2019-03-16T10:34:14.797Z,90.51
2019-03-16T10:35:15.632Z,90.95
2019-03-16T10:36:03.868Z,90.92
2019-03-16T10:37:04.790Z,91.00
2019-03-16T10:38:04.975Z,91.03
2019-03-16T10:39:05.511Z,90.79
2019-03-16T10:40:06.724Z,89.67
2019-03-16T10:41:06.846Z,89.58
2019-03-16T10:42:06.845Z,89.98
2019-03-16T10:43:07.451Z,89.87
2019-03-16T10:44:07.393Z,89.31
2019-03-16T10:45:07.365Z,89.28
2019-03-16T10:46:09.400Z,89.04
2019-03-16T10:47:10.246Z,89.26
2019-03-16T10:48:11.097Z,89.62
2019-03-16T10:49:10.811Z,90.04
2019-03-16T10:50:12.590Z,89.37
2019-03-16T10:51:13.515Z,88.78
2019-03-16T10:52:14.248Z,88.50
2019-03-16T10:53:15.129Z,89.02
2019-03-16T10:54:16.104Z,89.52
2019-03-16T10:55:17.102Z,89.23
2019-03-16T10:56:17.320Z,88.51
2019-03-16T10:57:18.214Z,88.54
2019-03-16T10:58:19.046Z,88.53
2019-03-16T10:59:19.883Z,88.79
2019-03-16T11:00:20.112Z,88.49
2019-03-16T11:01:20.354Z,88.61
2019-03-16T11:02:21.190Z,88.26
2019-03-16T11:03:21.989Z,87.77
2019-03-16T11:04:22.852Z,87.43
2019-03-16T11:05:22.108Z,87.38
2019-03-16T11:06:24.057Z,86.93
2019-03-16T11:07:24.060Z,86.83
2019-03-16T11:08:25.088Z,87.15
2019-03-16T11:09:26.793Z,88.00
2019-03-16T11:10:25.879Z,87.09
2019-03-16T11:11:27.100Z,86.33
2019-03-16T11:12:27.169Z,86.57
2019-03-16T11:13:35.706Z,86.97
2019-03-16T11:14:29.952Z,87.18
2019-03-16T11:15:27.822Z,86.41
2019-03-16T11:16:29.646Z,86.93
2019-03-16T11:17:30.032Z,86.88
2019-03-16T11:18:29.047Z,85.78
2019-03-16T11:19:29.899Z,85.33
2019-03-16T11:20:31.460Z,85.56
2019-03-16T11:21:34.560Z,85.39
2019-03-16T11:22:34.492Z,83.65
2019-03-16T11:23:32.560Z,83.44
2019-03-16T11:24:41.011Z,83.74
2019-03-16T11:25:33.179Z,84.01
2019-03-16T11:26:36.404Z,84.72
2019-03-16T11:27:34.424Z,83.71
2019-03-16T11:28:36.780Z,83.21
2019-03-16T11:29:34.651Z,83.63
2019-03-16T11:30:35.959Z,82.92
2019-03-16T11:31:35.007Z,82.64
2019-03-16T11:32:35.364Z,82.62
2019-03-16T11:33:37.267Z,82.79
2019-03-16T11:34:37.848Z,82.15
2019-03-16T11:35:38.691Z,82.54
2019-03-16T11:35:49.317Z,82.72
2019-03-16T11:36:58.631Z,82.73
2019-03-16T11:37:51.093Z,82.46
2019-03-16T11:38:52.995Z,83.15
2019-03-16T11:39:53.605Z,82.94
2019-03-16T11:40:54.456Z,82.77
2019-03-16T11:41:54.127Z,82.25
2019-03-16T11:42:55.955Z,82.85
2019-03-16T11:43:56.697Z,82.95
2019-03-16T11:45:02.972Z,82.76
2019-03-16T11:45:56.819Z,83.30
2019-03-16T11:46:57.802Z,83.12
2019-03-16T11:48:00.212Z,83.63
2019-03-16T11:48:58.198Z,83.09
2019-03-16T11:49:58.221Z,82.81
2019-03-16T11:51:01.637Z,82.74
2019-03-16T11:52:00.024Z,83.20
2019-03-16T11:53:01.083Z,83.16
2019-03-16T11:54:08.863Z,83.25
2019-03-16T11:55:01.263Z,82.95
2019-03-16T11:56:01.299Z,82.18
2019-03-16T11:57:03.166Z,82.12
2019-03-16T11:58:03.138Z,82.39
2019-03-16T11:59:03.176Z,82.39
2019-03-16T12:00:03.823Z,80.68
2019-03-16T12:01:03.853Z,81.21
2019-03-16T12:02:05.626Z,81.83
2019-03-16T12:03:03.639Z,81.49
2019-03-16T12:04:05.499Z,81.20
2019-03-16T12:05:06.216Z,80.75
2019-03-16T12:06:07.024Z,80.21
2019-03-16T12:07:07.002Z,79.53
2019-03-16T12:08:07.879Z,79.93
2019-03-16T12:09:08.634Z,80.01
2019-03-16T12:10:09.348Z,79.76
2019-03-16T12:11:10.957Z,79.66
2019-03-16T12:12:10.815Z,80.35
2019-03-16T12:13:17.321Z,79.89
2019-03-16T12:14:11.244Z,79.45
2019-03-16T12:15:13.050Z,80.26
2019-03-16T12:16:13.720Z,80.60
2019-03-16T12:17:14.354Z,79.42
2019-03-16T12:18:14.970Z,79.25
2019-03-16T12:19:15.936Z,79.68
2019-03-16T12:20:18.341Z,78.58
2019-03-16T12:21:16.546Z,79.15
2019-03-16T12:22:18.211Z,78.60
2019-03-16T12:23:18.860Z,78.34
2019-03-16T12:24:19.602Z,78.95
2019-03-16T12:25:20.268Z,78.39
2019-03-16T12:26:21.036Z,78.67
2019-03-16T12:27:21.547Z,78.38
2019-03-16T12:28:21.853Z,79.52
2019-03-16T12:29:33.400Z,79.02
2019-03-16T12:30:22.313Z,78.75
2019-03-16T12:31:24.248Z,79.22
2019-03-16T12:31:32.875Z,79.53
2019-03-16T12:32:33.951Z,79.53
2019-03-16T12:33:34.833Z,79.87
2019-03-16T12:34:35.597Z,80.58
2019-03-16T12:35:36.392Z,79.48
2019-03-16T12:36:37.229Z,79.46
2019-03-16T12:37:37.890Z,80.24
2019-03-16T12:38:38.498Z,80.73
2019-03-16T12:39:39.212Z,80.78